createdAt,value
2022-11-27T00:00:30.260Z,73.20
2022-11-27T00:02:57.046Z,73.30
2022-11-27T00:05:23.811Z,73.40
2022-11-27T00:07:50.591Z,73.40
2022-11-27T00:10:17.435Z,73.40
2022-11-27T00:12:44.190Z,73.40
2022-11-27T00:15:15.954Z,73.20
2022-11-27T00:17:43.953Z,73.00
2022-11-27T00:20:10.969Z,73.00
2022-11-27T00:22:37.668Z,73.20
2022-11-27T00:25:04.702Z,73.30
2022-11-27T00:27:31.534Z,73.30
2022-11-27T00:29:58.226Z,73.40
2022-11-27T00:32:24.940Z,73.50
2022-11-27T00:34:51.724Z,73.30
2022-11-27T00:37:18.487Z,73.30
2022-11-27T00:39:45.206Z,73.40
2022-11-27T00:42:11.931Z,73.40
2022-11-27T00:44:38.910Z,73.50
2022-11-27T00:47:06.077Z,73.60
2022-11-27T00:49:32.896Z,73.50
2022-11-27T00:51:59.624Z,73.40
2022-11-27T00:54:26.336Z,73.40
2022-11-27T00:56:53.051Z,73.60
2022-11-27T00:59:19.822Z,73.60
2022-11-27T01:01:46.655Z,73.70
2022-11-27T01:04:14.599Z,73.70
2022-11-27T01:06:41.486Z,73.70
2022-11-27T01:09:08.346Z,73.70
2022-11-27T01:11:35.471Z,73.80
2022-11-27T01:14:15.914Z,73.90
2022-11-27T01:16:43.441Z,73.80
2022-11-27T01:19:10.958Z,73.80
2022-11-27T01:21:37.645Z,73.60
2022-11-27T01:24:04.919Z,73.60
2022-11-27T01:26:31.674Z,73.50
2022-11-27T01:28:58.629Z,73.70
2022-11-27T01:31:28.839Z,74.10
2022-11-27T01:33:57.813Z,73.80
2022-11-27T01:36:24.883Z,73.90
2022-11-27T01:38:51.817Z,74.00
2022-11-27T01:41:23.272Z,73.90
2022-11-27T01:44:00.818Z,73.90
2022-11-27T01:46:43.434Z,73.80
2022-11-27T01:49:10.260Z,74.30
2022-11-27T01:51:48.629Z,74.50
2022-11-27T01:54:15.543Z,74.20
2022-11-27T01:56:43.487Z,74.90
2022-11-27T01:59:10.231Z,74.20
2022-11-27T02:01:37.056Z,74.10
2022-11-27T02:04:03.968Z,74.10
2022-11-27T02:06:30.736Z,74.20
2022-11-27T02:08:57.505Z,74.20
2022-11-27T02:11:46.113Z,74.20
2022-11-27T02:14:27.899Z,74.40
2022-11-27T02:17:18.169Z,74.20
2022-11-27T02:20:01.844Z,74.30
2022-11-27T02:22:40.481Z,74.30
2022-11-27T02:25:14.123Z,74.40
2022-11-27T02:27:47.878Z,74.40
2022-11-27T02:30:14.639Z,74.50
2022-11-27T02:32:55.741Z,74.50
2022-11-27T02:35:52.497Z,74.50
2022-11-27T02:38:31.469Z,74.50
2022-11-27T02:41:09.548Z,74.50
2022-11-27T02:43:41.232Z,74.60
2022-11-27T02:46:09.061Z,74.50
2022-11-27T02:48:38.291Z,74.50
2022-11-27T02:51:05.318Z,74.60
2022-11-27T02:53:34.568Z,74.60
2022-11-27T02:56:01.318Z,74.70
2022-11-27T02:58:28.041Z,74.60
2022-11-27T03:00:54.883Z,74.70
2022-11-27T03:03:23.754Z,74.70
2022-11-27T03:05:51.540Z,74.70
2022-11-27T03:08:38.987Z,74.60
2022-11-27T03:11:13.667Z,74.50
2022-11-27T03:13:51.801Z,75.20
2022-11-27T03:16:34.351Z,74.20
2022-11-27T03:19:22.907Z,73.90
2022-11-27T03:21:58.455Z,73.60
2022-11-27T03:24:25.372Z,73.90
2022-11-27T03:26:52.179Z,73.80
2022-11-27T03:29:25.861Z,73.60
2022-11-27T03:31:52.676Z,73.20
2022-11-27T03:34:19.537Z,73.30
2022-11-27T03:36:46.454Z,73.40
2022-11-27T03:39:13.254Z,72.80
2022-11-27T03:42:02.741Z,72.90
2022-11-27T03:44:49.519Z,73.00
2022-11-27T03:47:35.892Z,72.80
2022-11-27T03:50:02.656Z,72.60
2022-11-27T03:52:29.323Z,72.50
2022-11-27T03:55:13.668Z,72.70
2022-11-27T03:57:47.026Z,72.70
2022-11-27T04:00:14.328Z,72.70
2022-11-27T04:02:49.961Z,72.10
2022-11-27T04:05:16.906Z,71.60
2022-11-27T04:07:43.796Z,71.70
2022-11-27T04:10:11.083Z,71.70
2022-11-27T04:12:37.860Z,72.00
2022-11-27T04:15:05.966Z,71.70
2022-11-27T04:17:32.677Z,71.40
2022-11-27T04:19:59.509Z,71.50
2022-11-27T04:22:26.174Z,71.20
2022-11-27T04:24:52.968Z,71.50
2022-11-27T04:27:19.734Z,71.00
2022-11-27T04:29:46.435Z,70.50
2022-11-27T04:32:13.177Z,70.60
2022-11-27T04:34:40.212Z,70.50
2022-11-27T04:37:07.198Z,70.60
2022-11-27T04:39:33.950Z,70.70
2022-11-27T04:42:00.726Z,70.30
2022-11-27T04:44:27.681Z,70.60
2022-11-27T04:46:54.543Z,70.10
2022-11-27T04:49:21.399Z,70.50
2022-11-27T04:51:48.147Z,70.00
2022-11-27T04:54:14.914Z,69.90
2022-11-27T04:56:41.680Z,70.00
2022-11-27T04:59:08.422Z,68.50
2022-11-27T05:01:35.152Z,68.70
2022-11-27T05:04:01.957Z,68.20
2022-11-27T05:06:28.907Z,68.90
2022-11-27T05:09:02.056Z,68.20
2022-11-27T05:11:29.775Z,68.00
2022-11-27T05:14:14.954Z,67.80
2022-11-27T05:16:42.406Z,67.20
2022-11-27T05:19:10.548Z,66.90
2022-11-27T05:21:37.680Z,66.80
2022-11-27T05:24:04.994Z,67.10
2022-11-27T05:26:31.882Z,67.30
2022-11-27T05:28:58.615Z,67.80
2022-11-27T05:31:25.505Z,67.20
2022-11-27T05:33:52.299Z,67.40
2022-11-27T05:36:19.037Z,68.70
2022-11-27T05:38:45.794Z,67.90
2022-11-27T05:41:12.529Z,67.70
2022-11-27T05:43:39.312Z,67.90
2022-11-27T05:46:07.066Z,67.50
2022-11-27T05:48:34.678Z,67.90
2022-11-27T05:51:01.549Z,67.10
2022-11-27T05:53:28.315Z,67.50
2022-11-27T05:55:55.109Z,67.60
2022-11-27T05:58:21.844Z,67.70
2022-11-27T06:00:48.500Z,67.30
2022-11-27T06:03:15.306Z,67.70
2022-11-27T06:05:42.069Z,67.70
2022-11-27T06:08:08.817Z,67.50
2022-11-27T06:10:35.537Z,67.00
2022-11-27T06:13:02.269Z,67.30
2022-11-27T06:15:29.039Z,67.60
2022-11-27T06:17:55.792Z,67.60
2022-11-27T06:20:22.645Z,67.60
2022-11-27T06:22:49.581Z,67.70
2022-11-27T06:25:16.509Z,66.90
2022-11-27T06:27:43.260Z,66.80
2022-11-27T06:30:10.510Z,66.70
2022-11-27T06:32:37.262Z,67.40
2022-11-27T06:35:04.268Z,67.60
2022-11-27T06:37:31.144Z,67.60
2022-11-27T06:39:57.872Z,67.50
2022-11-27T06:42:24.598Z,67.60
2022-11-27T06:44:51.395Z,67.50
2022-11-27T06:47:18.171Z,66.90
2022-11-27T06:49:44.888Z,67.20
2022-11-27T06:52:11.713Z,66.50
2022-11-27T06:54:38.568Z,66.50
2022-11-27T06:57:05.473Z,66.50
2022-11-27T06:59:32.248Z,67.10
2022-11-27T07:01:59.058Z,66.60
2022-11-27T07:04:25.865Z,66.20
2022-11-27T07:06:54.197Z,66.90
2022-11-27T07:09:20.906Z,66.20
2022-11-27T07:11:47.635Z,66.10
2022-11-27T07:14:14.347Z,66.00
2022-11-27T07:16:41.086Z,66.10
2022-11-27T07:19:08.080Z,66.00
2022-11-27T07:21:36.465Z,65.90
2022-11-27T07:24:03.265Z,66.30
2022-11-27T07:26:30.282Z,66.50
2022-11-27T07:28:57.049Z,66.10
2022-11-27T07:31:26.679Z,66.40
2022-11-27T07:33:53.559Z,66.30
2022-11-27T07:36:30.244Z,66.50
2022-11-27T07:38:58.074Z,66.50
2022-11-27T07:41:29.163Z,66.30
2022-11-27T07:43:59.204Z,66.70
2022-11-27T07:46:26.007Z,66.60
2022-11-27T07:48:53.165Z,66.60
2022-11-27T07:51:21.415Z,66.30
2022-11-27T07:53:48.805Z,66.60
2022-11-27T07:56:15.908Z,66.20
2022-11-27T07:58:42.734Z,66.10
2022-11-27T08:01:10.941Z,65.90
2022-11-27T08:03:37.936Z,66.50
2022-11-27T08:06:05.082Z,66.40
2022-11-27T08:08:32.540Z,65.90
2022-11-27T08:10:59.267Z,65.70
2022-11-27T08:13:25.990Z,65.40
2022-11-27T08:15:52.739Z,66.00
2022-11-27T08:18:19.602Z,66.20
2022-11-27T08:20:46.350Z,66.00
2022-11-27T08:23:13.061Z,66.20
2022-11-27T08:25:39.828Z,65.80
2022-11-27T08:28:06.584Z,66.10
2022-11-27T08:30:33.281Z,66.30
2022-11-27T08:33:00.271Z,66.30
2022-11-27T08:35:27.065Z,66.40
2022-11-27T08:37:53.827Z,66.50
2022-11-27T08:40:20.579Z,66.80
2022-11-27T08:42:47.334Z,66.90
2022-11-27T08:45:14.124Z,66.90
2022-11-27T08:47:41.043Z,67.00
2022-11-27T08:50:09.138Z,67.00
2022-11-27T08:52:35.867Z,67.20
2022-11-27T08:55:02.749Z,67.20
2022-11-27T08:57:29.506Z,67.30
2022-11-27T08:59:56.185Z,67.40
2022-11-27T09:02:22.932Z,68.30
2022-11-27T09:04:49.757Z,67.50
2022-11-27T09:07:16.763Z,67.50
2022-11-27T09:09:43.833Z,67.60
2022-11-27T09:12:10.570Z,67.60
2022-11-27T09:14:37.421Z,67.70
2022-11-27T09:17:04.370Z,67.60
2022-11-27T09:19:31.214Z,67.70
2022-11-27T09:21:57.996Z,67.70
2022-11-27T09:24:24.909Z,67.20
2022-11-27T09:26:51.665Z,67.50
2022-11-27T09:29:18.414Z,67.70
2022-11-27T09:31:45.210Z,67.80
2022-11-27T09:34:12.338Z,67.30
2022-11-27T09:36:39.088Z,67.60
2022-11-27T09:39:05.955Z,67.70
2022-11-27T09:41:46.772Z,67.60
2022-11-27T09:44:28.647Z,67.60
2022-11-27T09:46:56.594Z,67.60
2022-11-27T09:49:35.953Z,68.60
2022-11-27T09:52:07.411Z,67.40
2022-11-27T09:54:43.454Z,67.40
2022-11-27T09:57:15.554Z,67.90
2022-11-27T09:59:49.089Z,67.80
2022-11-27T10:02:23.676Z,67.20
2022-11-27T10:05:12.764Z,67.40
2022-11-27T10:08:09.418Z,67.30
2022-11-27T10:11:03.260Z,67.30
2022-11-27T10:14:02.572Z,67.40
2022-11-27T10:16:41.401Z,67.40
2022-11-27T10:19:31.655Z,67.40
2022-11-27T10:22:20.985Z,67.50
2022-11-27T10:25:00.373Z,67.60
2022-11-27T10:27:36.872Z,67.40
2022-11-27T10:30:04.907Z,67.50
2022-11-27T10:32:54.571Z,67.50
2022-11-27T10:35:20.301Z,67.50
2022-11-27T10:38:06.297Z,67.70
2022-11-27T10:40:46.146Z,67.30
2022-11-27T10:43:20.369Z,67.30
2022-11-27T10:46:14.185Z,67.40
2022-11-27T10:48:40.954Z,66.80
2022-11-27T10:51:17.729Z,66.70
2022-11-27T10:53:44.768Z,66.40
2022-11-27T10:56:29.502Z,66.80
2022-11-27T10:58:59.629Z,66.70
2022-11-27T11:01:28.198Z,66.80
2022-11-27T11:04:31.313Z,66.50
2022-11-27T11:06:54.714Z,66.60
2022-11-27T11:09:29.681Z,66.60
2022-11-27T11:12:10.107Z,66.90
2022-11-27T11:14:36.885Z,66.80
2022-11-27T11:17:15.333Z,66.50
2022-11-27T11:19:43.900Z,66.60
2022-11-27T11:22:15.510Z,66.00
2022-11-27T11:24:47.250Z,66.30
2022-11-27T11:27:17.707Z,66.00
2022-11-27T11:29:49.574Z,66.30
2022-11-27T11:32:33.170Z,65.90
2022-11-27T11:35:02.988Z,65.90
2022-11-27T11:37:30.497Z,65.30
2022-11-27T11:39:58.584Z,65.80
2022-11-27T11:42:29.812Z,65.90
2022-11-27T11:45:16.761Z,65.40
2022-11-27T11:47:47.608Z,65.70
2022-11-27T11:50:15.166Z,65.50
2022-11-27T11:52:56.210Z,65.60
2022-11-27T11:55:31.536Z,65.60
2022-11-27T11:58:21.129Z,65.30
2022-11-27T12:03:50.476Z,65.10
2022-11-27T12:06:29.996Z,64.80
2022-11-27T12:09:06.443Z,64.70
2022-11-27T12:11:54.746Z,64.90
2022-11-27T12:14:47.886Z,64.80
2022-11-27T12:17:36.390Z,65.00
2022-11-27T12:20:15.134Z,65.00
2022-11-27T12:23:22.151Z,64.80
2022-11-27T12:25:48.918Z,64.90
2022-11-27T12:28:29.023Z,64.80
2022-11-27T12:31:26.676Z,64.30
2022-11-27T12:34:03.345Z,64.60
2022-11-27T12:37:12.519Z,64.50
2022-11-27T12:39:43.467Z,64.20
2022-11-27T12:42:22.169Z,64.70
2022-11-27T12:45:01.005Z,64.50
2022-11-27T12:47:40.124Z,64.20
2022-11-27T12:50:16.084Z,63.90
2022-11-27T12:52:44.944Z,64.30
2022-11-27T12:55:20.707Z,64.40
2022-11-27T12:57:52.904Z,63.80
2022-11-27T13:00:23.943Z,63.90
2022-11-27T13:03:02.619Z,64.00
2022-11-27T13:05:32.298Z,63.90
2022-11-27T13:08:02.010Z,63.60
2022-11-27T13:10:35.872Z,63.80
2022-11-27T13:13:13.010Z,63.20
2022-11-27T13:15:49.542Z,63.50
2022-11-27T13:18:36.924Z,63.60
2022-11-27T13:21:10.415Z,63.40
2022-11-27T13:23:37.132Z,63.50
2022-11-27T13:26:11.570Z,63.70
2022-11-27T13:28:53.134Z,63.70
2022-11-27T13:31:25.490Z,63.70
2022-11-27T13:33:52.648Z,63.60
2022-11-27T13:36:36.168Z,63.50
2022-11-27T13:39:03.760Z,63.30
2022-11-27T13:41:36.221Z,63.80
2022-11-27T13:44:04.205Z,63.80
2022-11-27T13:46:41.085Z,63.80
2022-11-27T13:49:08.167Z,63.80
2022-11-27T13:51:36.796Z,63.90
2022-11-27T13:54:08.140Z,64.00
2022-11-27T13:56:34.901Z,63.70
2022-11-27T13:59:12.132Z,64.00
2022-11-27T14:01:38.901Z,64.00
2022-11-27T14:04:10.000Z,64.30
2022-11-27T14:06:36.720Z,64.30
2022-11-27T14:09:05.167Z,64.20
2022-11-27T14:11:35.050Z,64.10
2022-11-27T14:14:02.916Z,64.00
2022-11-27T14:16:34.317Z,64.00
2022-11-27T14:19:02.718Z,63.70
2022-11-27T14:21:38.875Z,63.70
2022-11-27T14:24:26.678Z,64.00
2022-11-27T14:26:54.191Z,64.00
2022-11-27T14:29:21.891Z,63.60
2022-11-27T14:31:59.268Z,63.70
2022-11-27T14:34:33.281Z,63.70
2022-11-27T14:37:00.277Z,63.70
2022-11-27T14:39:30.818Z,63.50
2022-11-27T14:41:58.391Z,63.50
2022-11-27T14:44:25.162Z,63.60
2022-11-27T14:46:52.140Z,63.30
2022-11-27T14:49:19.613Z,63.60
2022-11-27T14:51:46.430Z,63.40
2022-11-27T14:54:17.259Z,63.60
2022-11-27T14:56:44.022Z,63.60
2022-11-27T14:59:14.337Z,63.60
2022-11-27T15:01:41.112Z,63.40
2022-11-27T15:04:28.195Z,63.30
2022-11-27T15:06:55.542Z,63.30
2022-11-27T15:09:32.186Z,63.30
2022-11-27T15:12:14.195Z,63.40
2022-11-27T15:14:48.872Z,63.50
2022-11-27T15:17:17.699Z,63.30
2022-11-27T15:19:44.363Z,63.40
2022-11-27T15:22:17.042Z,63.40
2022-11-27T15:24:43.788Z,63.50
2022-11-27T15:27:20.104Z,63.30
2022-11-27T15:29:49.810Z,63.40
2022-11-27T15:32:22.947Z,63.40
2022-11-27T15:34:50.735Z,63.40
2022-11-27T15:37:30.897Z,63.30
2022-11-27T15:39:58.611Z,63.50
2022-11-27T15:42:26.348Z,63.50
2022-11-27T15:44:56.785Z,63.40
2022-11-27T15:47:28.328Z,63.50
2022-11-27T15:49:55.391Z,63.40
2022-11-27T15:52:22.087Z,63.10
2022-11-27T15:54:49.353Z,63.40
2022-11-27T15:57:16.077Z,63.30
2022-11-27T15:59:42.798Z,63.40
2022-11-27T16:02:16.068Z,63.70
2022-11-27T16:04:44.432Z,63.60
2022-11-27T16:07:11.322Z,63.60
2022-11-27T16:09:39.704Z,63.50
2022-11-27T16:12:06.719Z,63.70
2022-11-27T16:14:33.450Z,63.80
2022-11-27T16:17:01.280Z,63.70
2022-11-27T16:19:28.105Z,63.70
2022-11-27T16:21:54.950Z,63.40
2022-11-27T16:24:21.827Z,63.40
2022-11-27T16:26:48.565Z,63.50
2022-11-27T16:29:15.345Z,63.40
2022-11-27T16:31:42.126Z,63.20
2022-11-27T16:34:08.900Z,63.30
2022-11-27T16:36:35.659Z,63.30
2022-11-27T16:39:02.448Z,63.20
2022-11-27T16:41:29.270Z,63.30
2022-11-27T16:43:56.771Z,63.60
2022-11-27T16:46:30.401Z,63.40
2022-11-27T16:48:58.895Z,63.50
2022-11-27T16:51:28.415Z,63.40
2022-11-27T16:53:56.222Z,63.40
2022-11-27T16:56:24.411Z,63.30
2022-11-27T16:58:51.262Z,62.80
2022-11-27T17:01:25.764Z,62.70
2022-11-27T17:03:52.600Z,62.70
2022-11-27T17:06:22.194Z,62.50
2022-11-27T17:08:49.377Z,62.50
2022-11-27T17:11:17.465Z,62.90
2022-11-27T17:13:44.676Z,63.00
2022-11-27T17:16:11.583Z,62.80
2022-11-27T17:18:41.821Z,62.90
2022-11-27T17:21:10.332Z,62.80
2022-11-27T17:23:37.677Z,62.40
2022-11-27T17:26:08.546Z,62.60
2022-11-27T17:28:35.726Z,62.60
2022-11-27T17:31:08.770Z,62.70
2022-11-27T17:33:35.456Z,63.40
2022-11-27T17:36:02.565Z,62.70
2022-11-27T17:38:29.334Z,62.80
2022-11-27T17:41:10.216Z,62.80
2022-11-27T17:43:37.131Z,62.80
2022-11-27T17:46:24.281Z,62.90
2022-11-27T17:48:51.409Z,62.80
2022-11-27T17:51:18.514Z,62.80
2022-11-27T17:53:45.239Z,62.90
2022-11-27T17:56:13.690Z,62.90
2022-11-27T17:58:40.809Z,62.30
2022-11-27T18:01:08.788Z,62.20
2022-11-27T18:03:35.563Z,62.40
2022-11-27T18:06:05.503Z,62.60
2022-11-27T18:08:32.430Z,62.70
2022-11-27T18:11:07.603Z,62.80
2022-11-27T18:13:34.514Z,62.80
2022-11-27T18:16:21.529Z,62.20
2022-11-27T18:18:49.682Z,62.40
2022-11-27T18:21:18.740Z,62.40
2022-11-27T18:24:20.781Z,62.50
2022-11-27T18:27:00.560Z,62.30
2022-11-27T18:29:20.930Z,62.40
2022-11-27T18:31:47.834Z,62.40
2022-11-27T18:34:14.656Z,62.50
2022-11-27T18:36:41.734Z,62.40
2022-11-27T18:39:08.490Z,62.50
2022-11-27T18:41:35.286Z,62.60
2022-11-27T18:44:02.252Z,62.30
2022-11-27T18:46:29.137Z,62.40
2022-11-27T18:48:55.981Z,62.70
2022-11-27T18:51:24.056Z,62.80
2022-11-27T18:53:51.053Z,62.90
2022-11-27T18:56:20.211Z,62.60
2022-11-27T18:58:47.027Z,62.70
2022-11-27T19:01:18.425Z,62.60
2022-11-27T19:03:45.494Z,62.50
2022-11-27T19:06:13.064Z,62.80
2022-11-27T19:08:39.847Z,62.70
2022-11-27T19:11:08.665Z,62.50
2022-11-27T19:13:35.562Z,62.50
2022-11-27T19:16:10.435Z,62.30
2022-11-27T19:18:37.265Z,62.50
2022-11-27T19:21:11.250Z,62.30
2022-11-27T19:23:39.434Z,61.80
2022-11-27T19:26:13.997Z,61.70
2022-11-27T19:28:40.826Z,61.80
2022-11-27T19:31:09.148Z,62.10
2022-11-27T19:33:36.848Z,62.30
2022-11-27T19:36:11.406Z,62.20
2022-11-27T19:38:38.603Z,61.90
2022-11-27T19:41:12.681Z,61.30
2022-11-27T19:43:39.555Z,61.50
2022-11-27T19:46:33.633Z,62.00
2022-11-27T19:49:01.757Z,62.10
2022-11-27T19:51:28.768Z,62.10
2022-11-27T19:53:55.601Z,61.70
2022-11-27T19:56:22.373Z,61.70
2022-11-27T19:58:49.035Z,61.90
2022-11-27T20:01:18.223Z,61.90
2022-11-27T20:03:45.160Z,61.70
2022-11-27T20:06:13.745Z,61.90
2022-11-27T20:08:40.998Z,62.00
2022-11-27T20:11:09.512Z,62.00
2022-11-27T20:13:36.272Z,62.10
2022-11-27T20:16:09.819Z,62.20
2022-11-27T20:18:36.872Z,62.20
2022-11-27T20:21:11.318Z,62.20
2022-11-27T20:23:38.750Z,62.30
2022-11-27T20:26:06.650Z,62.30
2022-11-27T20:28:33.754Z,62.30
2022-11-27T20:31:01.053Z,62.50
2022-11-27T20:33:27.950Z,62.20
2022-11-27T20:35:55.154Z,62.20
2022-11-27T20:38:22.766Z,62.20
2022-11-27T20:40:50.203Z,62.20
2022-11-27T20:43:17.007Z,62.20
2022-11-27T20:45:43.904Z,62.00
2022-11-27T20:48:10.801Z,62.10
2022-11-27T20:50:38.790Z,61.90
2022-11-27T20:53:05.733Z,61.60
2022-11-27T20:55:33.714Z,61.40
2022-11-27T20:58:00.493Z,61.70
2022-11-27T21:00:27.248Z,61.90
2022-11-27T21:02:53.964Z,62.00
2022-11-27T21:05:20.726Z,62.20
2022-11-27T21:07:47.543Z,61.70
2022-11-27T21:10:15.495Z,60.80
2022-11-27T21:12:42.388Z,61.40
2022-11-27T21:15:09.824Z,61.70
2022-11-27T21:17:36.524Z,61.90
2022-11-27T21:20:04.499Z,61.80
2022-11-27T21:22:31.686Z,61.80
2022-11-27T21:24:58.500Z,61.70
2022-11-27T21:27:25.265Z,61.70
2022-11-27T21:29:52.075Z,61.80
2022-11-27T21:32:22.440Z,61.80
2022-11-27T21:34:49.334Z,61.90
2022-11-27T21:37:16.047Z,62.00
2022-11-27T21:39:44.621Z,61.70
2022-11-27T21:42:11.379Z,62.10
2022-11-27T21:44:41.438Z,62.10
2022-11-27T21:47:11.977Z,62.00
2022-11-27T21:49:41.873Z,62.00
2022-11-27T21:52:08.618Z,62.00
2022-11-27T21:54:36.230Z,62.00
2022-11-27T21:57:02.956Z,61.90
2022-11-27T21:59:29.699Z,62.00
2022-11-27T22:01:57.364Z,62.00
2022-11-27T22:04:24.946Z,61.90
2022-11-27T22:06:51.689Z,61.90
2022-11-27T22:09:18.467Z,61.90
2022-11-27T22:11:45.947Z,62.10
2022-11-27T22:14:13.430Z,62.70
2022-11-27T22:16:45.244Z,61.70
2022-11-27T22:19:14.256Z,61.90
2022-11-27T22:21:41.221Z,61.70
2022-11-27T22:24:12.207Z,61.60
2022-11-27T22:26:43.424Z,61.70
2022-11-27T22:29:10.171Z,61.40
2022-11-27T22:31:36.976Z,61.60
2022-11-27T22:34:03.822Z,61.80
2022-11-27T22:36:32.142Z,61.50
2022-11-27T22:39:00.219Z,61.60
2022-11-27T22:41:27.918Z,61.60
2022-11-27T22:43:54.635Z,61.60
2022-11-27T22:46:29.404Z,61.80
2022-11-27T22:48:58.113Z,61.70
2022-11-27T22:51:25.469Z,61.70
2022-11-27T22:53:52.272Z,61.80
2022-11-27T22:56:19.126Z,61.80
2022-11-27T22:58:46.087Z,62.70
2022-11-27T23:01:18.087Z,61.90
2022-11-27T23:03:45.041Z,61.90
2022-11-27T23:06:12.940Z,62.00
2022-11-27T23:08:40.336Z,61.90
2022-11-27T23:11:07.603Z,61.80
2022-11-27T23:13:34.379Z,61.80
2022-11-27T23:16:05.224Z,62.80
2022-11-27T23:18:32.388Z,61.80
2022-11-27T23:20:59.165Z,62.00
2022-11-27T23:23:25.858Z,62.00
2022-11-27T23:25:52.569Z,62.00
2022-11-27T23:28:19.273Z,62.20
2022-11-27T23:30:46.034Z,62.00
2022-11-27T23:33:13.376Z,61.90
2022-11-27T23:35:40.144Z,61.90
2022-11-27T23:38:06.925Z,61.60
2022-11-27T23:40:33.584Z,61.70
2022-11-27T23:43:00.290Z,61.80
2022-11-27T23:45:27.075Z,61.50
2022-11-27T23:47:53.877Z,61.50
2022-11-27T23:50:20.569Z,61.30
2022-11-27T23:52:47.235Z,61.30
2022-11-27T23:55:14.073Z,61.60
2022-11-27T23:57:40.812Z,61.80
